sensor_id;sensor_type;location;lat;lon;timestamp;temperature;humidity
6654;DHT22;3363;50.942;7.034;2023-06-04T00:00:51;19.80;28.30
6654;DHT22;3363;50.942;7.034;2023-06-04T00:03:18;19.70;28.20
6654;DHT22;3363;50.942;7.034;2023-06-04T00:05:46;19.70;28.30
6654;DHT22;3363;50.942;7.034;2023-06-04T00:08:13;19.70;28.50
6654;DHT22;3363;50.942;7.034;2023-06-04T00:10:39;19.60;28.20
6654;DHT22;3363;50.942;7.034;2023-06-04T00:13:06;19.60;28.40
6654;DHT22;3363;50.942;7.034;2023-06-04T00:15:33;19.60;28.40
6654;DHT22;3363;50.942;7.034;2023-06-04T00:17:59;19.60;28.50
6654;DHT22;3363;50.942;7.034;2023-06-04T00:20:26;19.50;28.50
6654;DHT22;3363;50.942;7.034;2023-06-04T00:22:54;19.50;28.50
6654;DHT22;3363;50.942;7.034;2023-06-04T00:25:21;19.50;28.60
6654;DHT22;3363;50.942;7.034;2023-06-04T00:27:47;19.50;28.80
6654;DHT22;3363;50.942;7.034;2023-06-04T00:30:14;19.50;28.60
6654;DHT22;3363;50.942;7.034;2023-06-04T00:32:41;19.40;28.60
6654;DHT22;3363;50.942;7.034;2023-06-04T00:35:08;19.40;28.70
6654;DHT22;3363;50.942;7.034;2023-06-04T00:37:35;19.40;28.90
6654;DHT22;3363;50.942;7.034;2023-06-04T00:40:04;19.40;28.90
6654;DHT22;3363;50.942;7.034;2023-06-04T00:42:31;19.40;29.00
6654;DHT22;3363;50.942;7.034;2023-06-04T00:44:58;19.00;29.50
6654;DHT22;3363;50.942;7.034;2023-06-04T00:47:25;19.00;29.40
6654;DHT22;3363;50.942;7.034;2023-06-04T00:49:53;19.20;29.10
6654;DHT22;3363;50.942;7.034;2023-06-04T00:52:22;19.10;29.00
6654;DHT22;3363;50.942;7.034;2023-06-04T00:54:49;19.10;29.00
6654;DHT22;3363;50.942;7.034;2023-06-04T00:57:17;19.10;29.10
6654;DHT22;3363;50.942;7.034;2023-06-04T00:59:44;19.10;29.30
6654;DHT22;3363;50.942;7.034;2023-06-04T01:02:11;19.10;29.30
6654;DHT22;3363;50.942;7.034;2023-06-04T01:04:41;19.10;29.40
6654;DHT22;3363;50.942;7.034;2023-06-04T01:07:09;19.10;29.40
6654;DHT22;3363;50.942;7.034;2023-06-04T01:09:37;19.00;29.50
6654;DHT22;3363;50.942;7.034;2023-06-04T01:12:05;19.00;30.20
6654;DHT22;3363;50.942;7.034;2023-06-04T01:14:33;19.00;29.80
6654;DHT22;3363;50.942;7.034;2023-06-04T01:17:01;19.00;29.90
6654;DHT22;3363;50.942;7.034;2023-06-04T01:19:44;19.00;29.90
6654;DHT22;3363;50.942;7.034;2023-06-04T01:22:17;18.90;30.00
6654;DHT22;3363;50.942;7.034;2023-06-04T01:24:46;18.90;30.00
6654;DHT22;3363;50.942;7.034;2023-06-04T01:27:17;18.90;30.10
6654;DHT22;3363;50.942;7.034;2023-06-04T01:29:46;18.90;30.20
6654;DHT22;3363;50.942;7.034;2023-06-04T01:32:14;18.90;30.20
6654;DHT22;3363;50.942;7.034;2023-06-04T01:34:44;18.80;30.20
6654;DHT22;3363;50.942;7.034;2023-06-04T01:37:11;18.70;30.10
6654;DHT22;3363;50.942;7.034;2023-06-04T01:39:38;18.70;30.20
6654;DHT22;3363;50.942;7.034;2023-06-04T01:42:06;18.70;30.50
6654;DHT22;3363;50.942;7.034;2023-06-04T01:44:33;18.70;30.60
6654;DHT22;3363;50.942;7.034;2023-06-04T01:47:01;18.60;30.60
6654;DHT22;3363;50.942;7.034;2023-06-04T01:49:27;18.60;30.70
6654;DHT22;3363;50.942;7.034;2023-06-04T01:51:54;18.60;30.70
6654;DHT22;3363;50.942;7.034;2023-06-04T01:54:21;18.60;30.70
6654;DHT22;3363;50.942;7.034;2023-06-04T01:56:48;18.50;30.70
6654;DHT22;3363;50.942;7.034;2023-06-04T01:59:14;18.50;30.80
6654;DHT22;3363;50.942;7.034;2023-06-04T02:01:41;18.50;30.70
6654;DHT22;3363;50.942;7.034;2023-06-04T02:04:09;18.50;30.70
6654;DHT22;3363;50.942;7.034;2023-06-04T02:06:36;18.50;30.80
6654;DHT22;3363;50.942;7.034;2023-06-04T02:09:03;18.40;30.70
6654;DHT22;3363;50.942;7.034;2023-06-04T02:11:29;18.40;30.90
6654;DHT22;3363;50.942;7.034;2023-06-04T02:13:56;18.40;31.00
6654;DHT22;3363;50.942;7.034;2023-06-04T02:16:23;18.40;31.00
6654;DHT22;3363;50.942;7.034;2023-06-04T02:18:50;18.30;30.90
6654;DHT22;3363;50.942;7.034;2023-06-04T02:21:18;18.30;31.10
6654;DHT22;3363;50.942;7.034;2023-06-04T02:23:44;18.30;31.10
6654;DHT22;3363;50.942;7.034;2023-06-04T02:26:11;18.30;31.40
6654;DHT22;3363;50.942;7.034;2023-06-04T02:28:38;18.20;31.30
6654;DHT22;3363;50.942;7.034;2023-06-04T02:31:05;18.20;31.30
6654;DHT22;3363;50.942;7.034;2023-06-04T02:33:31;18.20;31.40
6654;DHT22;3363;50.942;7.034;2023-06-04T02:35:58;18.20;31.50
6654;DHT22;3363;50.942;7.034;2023-06-04T02:38:26;18.10;31.40
6654;DHT22;3363;50.942;7.034;2023-06-04T02:40:53;18.10;31.50
6654;DHT22;3363;50.942;7.034;2023-06-04T02:43:20;18.10;31.70
6654;DHT22;3363;50.942;7.034;2023-06-04T02:45:46;18.10;31.80
6654;DHT22;3363;50.942;7.034;2023-06-04T02:48:13;18.00;31.80
6654;DHT22;3363;50.942;7.034;2023-06-04T02:50:40;18.00;32.20
6654;DHT22;3363;50.942;7.034;2023-06-04T02:53:07;18.00;32.20
6654;DHT22;3363;50.942;7.034;2023-06-04T02:55:35;18.00;32.20
6654;DHT22;3363;50.942;7.034;2023-06-04T02:58:02;18.00;32.20
6654;DHT22;3363;50.942;7.034;2023-06-04T03:00:29;17.90;32.10
6654;DHT22;3363;50.942;7.034;2023-06-04T03:02:56;17.90;32.10
6654;DHT22;3363;50.942;7.034;2023-06-04T03:05:26;17.90;32.10
6654;DHT22;3363;50.942;7.034;2023-06-04T03:07:56;17.90;32.10
6654;DHT22;3363;50.942;7.034;2023-06-04T03:10:23;17.90;32.10
6654;DHT22;3363;50.942;7.034;2023-06-04T03:12:52;17.80;32.00
6654;DHT22;3363;50.942;7.034;2023-06-04T03:15:18;17.80;32.00
6654;DHT22;3363;50.942;7.034;2023-06-04T03:17:45;17.80;32.00
6654;DHT22;3363;50.942;7.034;2023-06-04T03:20:11;17.80;32.00
6654;DHT22;3363;50.942;7.034;2023-06-04T03:22:38;17.70;31.90
6654;DHT22;3363;50.942;7.034;2023-06-04T03:25:05;17.70;32.00
6654;DHT22;3363;50.942;7.034;2023-06-04T03:27:32;17.70;31.90
6654;DHT22;3363;50.942;7.034;2023-06-04T03:30:00;17.70;31.90
6654;DHT22;3363;50.942;7.034;2023-06-04T03:32:27;17.60;31.80
6654;DHT22;3363;50.942;7.034;2023-06-04T03:34:53;17.60;31.90
6654;DHT22;3363;50.942;7.034;2023-06-04T03:37:20;17.60;31.90
6654;DHT22;3363;50.942;7.034;2023-06-04T03:39:46;17.60;32.10
6654;DHT22;3363;50.942;7.034;2023-06-04T03:42:13;17.60;32.10
6654;DHT22;3363;50.942;7.034;2023-06-04T03:44:40;17.60;32.20
6654;DHT22;3363;50.942;7.034;2023-06-04T03:47:08;17.50;32.20
6654;DHT22;3363;50.942;7.034;2023-06-04T03:49:35;17.50;32.30
6654;DHT22;3363;50.942;7.034;2023-06-04T03:52:01;17.50;32.50
6654;DHT22;3363;50.942;7.034;2023-06-04T03:54:28;17.50;32.60
6654;DHT22;3363;50.942;7.034;2023-06-04T03:56:56;17.40;32.60
6654;DHT22;3363;50.942;7.034;2023-06-04T03:59:22;17.40;32.70
6654;DHT22;3363;50.942;7.034;2023-06-04T04:01:49;17.40;32.90
6654;DHT22;3363;50.942;7.034;2023-06-04T04:04:17;17.40;32.90
6654;DHT22;3363;50.942;7.034;2023-06-04T04:06:43;17.40;33.00
6654;DHT22;3363;50.942;7.034;2023-06-04T04:09:10;17.40;33.10
6654;DHT22;3363;50.942;7.034;2023-06-04T04:11:37;17.40;33.20
6654;DHT22;3363;50.942;7.034;2023-06-04T04:14:03;17.40;33.30
6654;DHT22;3363;50.942;7.034;2023-06-04T04:16:30;17.40;33.50
6654;DHT22;3363;50.942;7.034;2023-06-04T04:18:57;17.30;33.40
6654;DHT22;3363;50.942;7.034;2023-06-04T04:21:25;17.30;33.60
6654;DHT22;3363;50.942;7.034;2023-06-04T04:23:51;17.30;33.60
6654;DHT22;3363;50.942;7.034;2023-06-04T04:26:18;17.30;33.70
6654;DHT22;3363;50.942;7.034;2023-06-04T04:28:45;17.30;33.80
6654;DHT22;3363;50.942;7.034;2023-06-04T04:31:11;17.30;33.90
6654;DHT22;3363;50.942;7.034;2023-06-04T04:33:38;17.30;34.10
6654;DHT22;3363;50.942;7.034;2023-06-04T04:36:05;17.30;34.10
6654;DHT22;3363;50.942;7.034;2023-06-04T04:38:36;17.30;34.30
6654;DHT22;3363;50.942;7.034;2023-06-04T04:41:03;17.30;34.30
6654;DHT22;3363;50.942;7.034;2023-06-04T04:43:33;17.30;34.50
6654;DHT22;3363;50.942;7.034;2023-06-04T04:46:00;17.30;34.50
6654;DHT22;3363;50.942;7.034;2023-06-04T04:48:27;17.30;35.40
6654;DHT22;3363;50.942;7.034;2023-06-04T04:50:54;17.30;34.70
6654;DHT22;3363;50.942;7.034;2023-06-04T04:53:20;17.20;34.70
6654;DHT22;3363;50.942;7.034;2023-06-04T04:55:48;17.20;34.80
6654;DHT22;3363;50.942;7.034;2023-06-04T04:58:15;17.20;34.90
6654;DHT22;3363;50.942;7.034;2023-06-04T05:00:42;17.30;35.20
6654;DHT22;3363;50.942;7.034;2023-06-04T05:03:08;17.30;35.30
6654;DHT22;3363;50.942;7.034;2023-06-04T05:05:35;17.30;35.50
6654;DHT22;3363;50.942;7.034;2023-06-04T05:08:02;17.30;35.40
6654;DHT22;3363;50.942;7.034;2023-06-04T05:10:29;17.30;35.60
6654;DHT22;3363;50.942;7.034;2023-06-04T05:12:58;17.20;35.90
6654;DHT22;3363;50.942;7.034;2023-06-04T05:15:26;17.20;35.90
6654;DHT22;3363;50.942;7.034;2023-06-04T05:17:53;17.30;35.80
6654;DHT22;3363;50.942;7.034;2023-06-04T05:20:21;17.30;36.10
6654;DHT22;3363;50.942;7.034;2023-06-04T05:22:48;17.10;34.70
6654;DHT22;3363;50.942;7.034;2023-06-04T05:25:14;17.00;36.30
6654;DHT22;3363;50.942;7.034;2023-06-04T05:27:41;17.10;36.20
6654;DHT22;3363;50.942;7.034;2023-06-04T05:30:10;17.00;35.60
6654;DHT22;3363;50.942;7.034;2023-06-04T05:32:37;17.20;36.10
6654;DHT22;3363;50.942;7.034;2023-06-04T05:35:06;17.30;35.70
6654;DHT22;3363;50.942;7.034;2023-06-04T05:37:33;17.30;35.80
6654;DHT22;3363;50.942;7.034;2023-06-04T05:40:00;17.20;35.80
6654;DHT22;3363;50.942;7.034;2023-06-04T05:42:28;17.30;35.60
6654;DHT22;3363;50.942;7.034;2023-06-04T05:44:55;17.30;35.50
6654;DHT22;3363;50.942;7.034;2023-06-04T05:47:23;17.30;35.70
6654;DHT22;3363;50.942;7.034;2023-06-04T05:49:50;17.30;35.90
6654;DHT22;3363;50.942;7.034;2023-06-04T05:52:16;17.30;35.80
6654;DHT22;3363;50.942;7.034;2023-06-04T05:54:43;17.40;35.70
6654;DHT22;3363;50.942;7.034;2023-06-04T05:57:10;17.40;35.40
6654;DHT22;3363;50.942;7.034;2023-06-04T05:59:36;17.70;34.50
6654;DHT22;3363;50.942;7.034;2023-06-04T06:02:03;17.80;34.40
6654;DHT22;3363;50.942;7.034;2023-06-04T06:04:31;18.10;33.70
6654;DHT22;3363;50.942;7.034;2023-06-04T06:06:58;18.40;33.50
6654;DHT22;3363;50.942;7.034;2023-06-04T06:09:25;17.90;34.10
6654;DHT22;3363;50.942;7.034;2023-06-04T06:11:52;17.60;34.70
6654;DHT22;3363;50.942;7.034;2023-06-04T06:14:18;17.50;34.90
6654;DHT22;3363;50.942;7.034;2023-06-04T06:16:45;17.50;35.20
6654;DHT22;3363;50.942;7.034;2023-06-04T06:19:12;17.30;35.40
6654;DHT22;3363;50.942;7.034;2023-06-04T06:21:41;17.80;33.90
6654;DHT22;3363;50.942;7.034;2023-06-04T06:24:07;20.10;30.10
6654;DHT22;3363;50.942;7.034;2023-06-04T06:26:34;20.70;29.60
6654;DHT22;3363;50.942;7.034;2023-06-04T06:29:01;23.60;26.80
6654;DHT22;3363;50.942;7.034;2023-06-04T06:31:28;27.60;19.70
6654;DHT22;3363;50.942;7.034;2023-06-04T06:33:54;29.30;17.60
6654;DHT22;3363;50.942;7.034;2023-06-04T06:36:21;30.30;16.30
6654;DHT22;3363;50.942;7.034;2023-06-04T06:38:49;30.40;15.00
6654;DHT22;3363;50.942;7.034;2023-06-04T06:41:16;30.70;14.60
6654;DHT22;3363;50.942;7.034;2023-06-04T06:43:43;30.60;12.30
6654;DHT22;3363;50.942;7.034;2023-06-04T06:46:10;30.80;13.40
6654;DHT22;3363;50.942;7.034;2023-06-04T06:48:36;30.50;14.10
6654;DHT22;3363;50.942;7.034;2023-06-04T06:51:03;28.70;16.40
6654;DHT22;3363;50.942;7.034;2023-06-04T06:53:30;25.70;19.90
6654;DHT22;3363;50.942;7.034;2023-06-04T06:55:58;22.40;23.50
6654;DHT22;3363;50.942;7.034;2023-06-04T06:58:24;20.50;27.20
6654;DHT22;3363;50.942;7.034;2023-06-04T07:00:51;19.40;28.90
6654;DHT22;3363;50.942;7.034;2023-06-04T07:03:19;18.70;30.10
6654;DHT22;3363;50.942;7.034;2023-06-04T07:05:46;18.40;31.50
6654;DHT22;3363;50.942;7.034;2023-06-04T07:08:13;18.20;32.20
6654;DHT22;3363;50.942;7.034;2023-06-04T07:10:41;18.00;32.50
6654;DHT22;3363;50.942;7.034;2023-06-04T07:13:09;17.90;32.20
6654;DHT22;3363;50.942;7.034;2023-06-04T07:15:36;17.90;33.30
6654;DHT22;3363;50.942;7.034;2023-06-04T07:18:02;17.90;33.00
6654;DHT22;3363;50.942;7.034;2023-06-04T07:20:29;17.80;34.00
6654;DHT22;3363;50.942;7.034;2023-06-04T07:22:56;17.80;36.70
6654;DHT22;3363;50.942;7.034;2023-06-04T07:25:23;17.80;34.20
6654;DHT22;3363;50.942;7.034;2023-06-04T07:27:51;17.80;34.30
6654;DHT22;3363;50.942;7.034;2023-06-04T07:30:19;17.80;36.30
6654;DHT22;3363;50.942;7.034;2023-06-04T07:32:47;17.70;34.50
6654;DHT22;3363;50.942;7.034;2023-06-04T07:35:14;17.80;34.70
6654;DHT22;3363;50.942;7.034;2023-06-04T07:37:40;17.90;36.00
6654;DHT22;3363;50.942;7.034;2023-06-04T07:40:10;17.90;34.80
6654;DHT22;3363;50.942;7.034;2023-06-04T07:42:37;17.90;37.40
6654;DHT22;3363;50.942;7.034;2023-06-04T07:45:03;17.90;35.00
6654;DHT22;3363;50.942;7.034;2023-06-04T07:47:32;18.00;34.60
6654;DHT22;3363;50.942;7.034;2023-06-04T07:49:59;18.10;35.00
6654;DHT22;3363;50.942;7.034;2023-06-04T07:52:26;18.10;34.10
6654;DHT22;3363;50.942;7.034;2023-06-04T07:54:52;18.10;34.20
6654;DHT22;3363;50.942;7.034;2023-06-04T07:57:19;18.20;33.80
6654;DHT22;3363;50.942;7.034;2023-06-04T07:59:45;18.20;34.20
6654;DHT22;3363;50.942;7.034;2023-06-04T08:02:12;18.30;34.30
6654;DHT22;3363;50.942;7.034;2023-06-04T08:04:41;18.30;32.60
6654;DHT22;3363;50.942;7.034;2023-06-04T08:07:08;18.40;33.60
6654;DHT22;3363;50.942;7.034;2023-06-04T08:09:34;18.40;32.70
6654;DHT22;3363;50.942;7.034;2023-06-04T08:12:01;18.50;32.00
6654;DHT22;3363;50.942;7.034;2023-06-04T08:14:28;18.50;32.80
6654;DHT22;3363;50.942;7.034;2023-06-04T08:16:57;18.60;33.00
6654;DHT22;3363;50.942;7.034;2023-06-04T08:19:23;18.60;32.90
6654;DHT22;3363;50.942;7.034;2023-06-04T08:21:51;18.70;31.40
6654;DHT22;3363;50.942;7.034;2023-06-04T08:24:18;18.90;34.30
6654;DHT22;3363;50.942;7.034;2023-06-04T08:26:45;18.90;33.20
6654;DHT22;3363;50.942;7.034;2023-06-04T08:29:12;19.00;34.20
6654;DHT22;3363;50.942;7.034;2023-06-04T08:31:39;19.10;29.60
6654;DHT22;3363;50.942;7.034;2023-06-04T08:34:05;19.10;30.70
6654;DHT22;3363;50.942;7.034;2023-06-04T08:36:32;19.20;29.70
6654;DHT22;3363;50.942;7.034;2023-06-04T08:39:00;19.20;30.90
6654;DHT22;3363;50.942;7.034;2023-06-04T08:41:28;19.20;30.10
6654;DHT22;3363;50.942;7.034;2023-06-04T08:43:55;19.30;30.00
6654;DHT22;3363;50.942;7.034;2023-06-04T08:46:22;19.50;30.50
6654;DHT22;3363;50.942;7.034;2023-06-04T08:48:49;19.40;28.80
6654;DHT22;3363;50.942;7.034;2023-06-04T08:51:16;19.60;29.60
6654;DHT22;3363;50.942;7.034;2023-06-04T08:53:43;19.60;29.40
6654;DHT22;3363;50.942;7.034;2023-06-04T08:56:14;19.80;29.70
6654;DHT22;3363;50.942;7.034;2023-06-04T08:58:42;19.80;28.90
6654;DHT22;3363;50.942;7.034;2023-06-04T09:01:09;19.80;27.80
6654;DHT22;3363;50.942;7.034;2023-06-04T09:03:37;19.90;28.20
6654;DHT22;3363;50.942;7.034;2023-06-04T09:06:04;20.00;26.30
6654;DHT22;3363;50.942;7.034;2023-06-04T09:08:31;20.10;28.00
6654;DHT22;3363;50.942;7.034;2023-06-04T09:11:00;20.10;29.50
6654;DHT22;3363;50.942;7.034;2023-06-04T09:13:33;20.20;28.00
6654;DHT22;3363;50.942;7.034;2023-06-04T09:16:00;20.30;28.00
6654;DHT22;3363;50.942;7.034;2023-06-04T09:18:27;20.30;27.90
6654;DHT22;3363;50.942;7.034;2023-06-04T09:21:04;20.40;27.20
6654;DHT22;3363;50.942;7.034;2023-06-04T09:23:31;20.60;26.30
6654;DHT22;3363;50.942;7.034;2023-06-04T09:26:05;20.60;24.40
6654;DHT22;3363;50.942;7.034;2023-06-04T09:28:33;20.70;25.20
6654;DHT22;3363;50.942;7.034;2023-06-04T09:31:00;20.80;26.00
6654;DHT22;3363;50.942;7.034;2023-06-04T09:33:27;21.00;26.10
6654;DHT22;3363;50.942;7.034;2023-06-04T09:35:55;21.20;21.30
6654;DHT22;3363;50.942;7.034;2023-06-04T09:38:22;21.30;27.10
6654;DHT22;3363;50.942;7.034;2023-06-04T09:40:48;21.20;23.70
6654;DHT22;3363;50.942;7.034;2023-06-04T09:43:21;21.30;22.40
6654;DHT22;3363;50.942;7.034;2023-06-04T09:45:49;21.40;23.10
6654;DHT22;3363;50.942;7.034;2023-06-04T09:48:20;21.40;22.10
6654;DHT22;3363;50.942;7.034;2023-06-04T09:50:47;21.40;25.00
6654;DHT22;3363;50.942;7.034;2023-06-04T09:53:14;21.50;23.30
6654;DHT22;3363;50.942;7.034;2023-06-04T09:55:41;21.50;23.30
6654;DHT22;3363;50.942;7.034;2023-06-04T09:58:07;21.60;21.70
6654;DHT22;3363;50.942;7.034;2023-06-04T10:00:37;21.50;23.90
6654;DHT22;3363;50.942;7.034;2023-06-04T10:03:06;21.60;21.50
6654;DHT22;3363;50.942;7.034;2023-06-04T10:05:33;21.80;24.90
6654;DHT22;3363;50.942;7.034;2023-06-04T10:08:01;21.80;19.40
6654;DHT22;3363;50.942;7.034;2023-06-04T10:10:29;21.90;22.50
6654;DHT22;3363;50.942;7.034;2023-06-04T10:13:00;21.90;22.20
6654;DHT22;3363;50.942;7.034;2023-06-04T10:15:28;22.00;21.50
6654;DHT22;3363;50.942;7.034;2023-06-04T10:17:57;22.00;22.80
6654;DHT22;3363;50.942;7.034;2023-06-04T10:20:25;22.00;19.90
6654;DHT22;3363;50.942;7.034;2023-06-04T10:22:52;22.00;20.60
6654;DHT22;3363;50.942;7.034;2023-06-04T10:25:20;22.10;21.40
6654;DHT22;3363;50.942;7.034;2023-06-04T10:27:47;22.10;21.70
6654;DHT22;3363;50.942;7.034;2023-06-04T10:30:16;22.20;20.80
6654;DHT22;3363;50.942;7.034;2023-06-04T10:32:44;22.20;20.20
6654;DHT22;3363;50.942;7.034;2023-06-04T10:35:10;22.30;21.70
6654;DHT22;3363;50.942;7.034;2023-06-04T10:37:38;22.30;20.50
6654;DHT22;3363;50.942;7.034;2023-06-04T10:40:06;22.30;22.90
6654;DHT22;3363;50.942;7.034;2023-06-04T10:42:37;22.40;19.50
6654;DHT22;3363;50.942;7.034;2023-06-04T10:45:04;22.50;22.60
6654;DHT22;3363;50.942;7.034;2023-06-04T10:47:31;22.60;20.20
6654;DHT22;3363;50.942;7.034;2023-06-04T10:50:12;22.60;18.90
6654;DHT22;3363;50.942;7.034;2023-06-04T10:52:50;22.70;20.30
6654;DHT22;3363;50.942;7.034;2023-06-04T10:55:16;22.50;21.20
6654;DHT22;3363;50.942;7.034;2023-06-04T10:57:50;22.60;21.90
6654;DHT22;3363;50.942;7.034;2023-06-04T11:00:17;22.70;20.90
6654;DHT22;3363;50.942;7.034;2023-06-04T11:02:53;22.80;20.70
6654;DHT22;3363;50.942;7.034;2023-06-04T11:05:20;22.80;19.60
6654;DHT22;3363;50.942;7.034;2023-06-04T11:07:49;22.80;22.40
6654;DHT22;3363;50.942;7.034;2023-06-04T11:10:16;22.80;20.70
6654;DHT22;3363;50.942;7.034;2023-06-04T11:12:43;22.90;22.20
6654;DHT22;3363;50.942;7.034;2023-06-04T11:15:10;22.90;18.50
6654;DHT22;3363;50.942;7.034;2023-06-04T11:17:37;22.90;20.90
6654;DHT22;3363;50.942;7.034;2023-06-04T11:20:04;23.00;20.10
6654;DHT22;3363;50.942;7.034;2023-06-04T11:22:32;23.10;19.60
6654;DHT22;3363;50.942;7.034;2023-06-04T11:25:01;23.20;19.00
6654;DHT22;3363;50.942;7.034;2023-06-04T11:27:28;23.30;20.50
6654;DHT22;3363;50.942;7.034;2023-06-04T11:29:59;23.30;19.70
6654;DHT22;3363;50.942;7.034;2023-06-04T11:32:26;23.30;20.00
6654;DHT22;3363;50.942;7.034;2023-06-04T11:35:01;23.30;17.90
6654;DHT22;3363;50.942;7.034;2023-06-04T11:37:28;23.30;19.30
6654;DHT22;3363;50.942;7.034;2023-06-04T11:39:57;23.10;19.70
6654;DHT22;3363;50.942;7.034;2023-06-04T11:42:29;23.40;18.90
6654;DHT22;3363;50.942;7.034;2023-06-04T11:44:56;23.40;19.30
6654;DHT22;3363;50.942;7.034;2023-06-04T11:47:22;23.50;18.10
6654;DHT22;3363;50.942;7.034;2023-06-04T11:49:53;23.50;19.40
6654;DHT22;3363;50.942;7.034;2023-06-04T11:52:20;23.30;21.50
6654;DHT22;3363;50.942;7.034;2023-06-04T11:54:47;23.20;21.30
6654;DHT22;3363;50.942;7.034;2023-06-04T11:57:14;23.30;20.10
6654;DHT22;3363;50.942;7.034;2023-06-04T11:59:42;23.50;17.50
6654;DHT22;3363;50.942;7.034;2023-06-04T12:02:09;23.60;20.10
6654;DHT22;3363;50.942;7.034;2023-06-04T12:04:36;23.50;19.20
6654;DHT22;3363;50.942;7.034;2023-06-04T12:07:03;23.70;21.10
6654;DHT22;3363;50.942;7.034;2023-06-04T12:09:32;23.70;21.40
6654;DHT22;3363;50.942;7.034;2023-06-04T12:12:00;23.70;19.10
6654;DHT22;3363;50.942;7.034;2023-06-04T12:14:27;23.40;16.80
6654;DHT22;3363;50.942;7.034;2023-06-04T12:16:55;23.40;20.10
6654;DHT22;3363;50.942;7.034;2023-06-04T12:19:22;23.60;19.70
6654;DHT22;3363;50.942;7.034;2023-06-04T12:21:58;23.60;21.50
6654;DHT22;3363;50.942;7.034;2023-06-04T12:24:25;23.50;19.70
6654;DHT22;3363;50.942;7.034;2023-06-04T12:27:00;23.70;18.50
6654;DHT22;3363;50.942;7.034;2023-06-04T12:29:28;23.80;17.20
6654;DHT22;3363;50.942;7.034;2023-06-04T12:32:02;23.80;18.70
6654;DHT22;3363;50.942;7.034;2023-06-04T12:34:30;23.80;19.10
6654;DHT22;3363;50.942;7.034;2023-06-04T12:36:57;24.10;19.70
6654;DHT22;3363;50.942;7.034;2023-06-04T12:39:23;24.10;19.00
6654;DHT22;3363;50.942;7.034;2023-06-04T12:41:50;24.10;17.40
6654;DHT22;3363;50.942;7.034;2023-06-04T12:44:17;24.10;18.10
6654;DHT22;3363;50.942;7.034;2023-06-04T12:46:44;23.70;19.30
6654;DHT22;3363;50.942;7.034;2023-06-04T12:49:12;24.00;19.80
6654;DHT22;3363;50.942;7.034;2023-06-04T12:51:38;24.10;20.50
6654;DHT22;3363;50.942;7.034;2023-06-04T12:54:05;24.20;20.10
6654;DHT22;3363;50.942;7.034;2023-06-04T12:56:31;24.40;19.90
6654;DHT22;3363;50.942;7.034;2023-06-04T12:58:58;24.60;19.00
6654;DHT22;3363;50.942;7.034;2023-06-04T13:01:25;24.70;20.20
6654;DHT22;3363;50.942;7.034;2023-06-04T13:03:51;24.70;18.60
6654;DHT22;3363;50.942;7.034;2023-06-04T13:06:19;24.80;18.90
6654;DHT22;3363;50.942;7.034;2023-06-04T13:08:46;24.80;19.00
6654;DHT22;3363;50.942;7.034;2023-06-04T13:11:13;24.80;19.10
6654;DHT22;3363;50.942;7.034;2023-06-04T13:13:39;24.80;20.00
6654;DHT22;3363;50.942;7.034;2023-06-04T13:16:07;24.70;19.30
6654;DHT22;3363;50.942;7.034;2023-06-04T13:18:33;24.70;19.20
6654;DHT22;3363;50.942;7.034;2023-06-04T13:21:00;24.80;20.30
6654;DHT22;3363;50.942;7.034;2023-06-04T13:23:28;24.70;21.70
6654;DHT22;3363;50.942;7.034;2023-06-04T13:25:55;24.80;20.50
6654;DHT22;3363;50.942;7.034;2023-06-04T13:28:22;24.70;17.90
6654;DHT22;3363;50.942;7.034;2023-06-04T13:30:48;24.70;19.40
6654;DHT22;3363;50.942;7.034;2023-06-04T13:33:15;24.80;19.50
6654;DHT22;3363;50.942;7.034;2023-06-04T13:35:44;24.80;20.60
6654;DHT22;3363;50.942;7.034;2023-06-04T13:38:11;24.60;20.60
6654;DHT22;3363;50.942;7.034;2023-06-04T13:40:39;24.60;19.30
6654;DHT22;3363;50.942;7.034;2023-06-04T13:43:06;24.60;19.20
6654;DHT22;3363;50.942;7.034;2023-06-04T13:45:34;24.80;19.50
6654;DHT22;3363;50.942;7.034;2023-06-04T13:48:00;25.00;19.00
6654;DHT22;3363;50.942;7.034;2023-06-04T13:50:31;25.10;18.80
6654;DHT22;3363;50.942;7.034;2023-06-04T13:52:57;24.90;20.00
6654;DHT22;3363;50.942;7.034;2023-06-04T13:55:24;24.90;20.20
6654;DHT22;3363;50.942;7.034;2023-06-04T13:57:52;25.00;19.70
6654;DHT22;3363;50.942;7.034;2023-06-04T14:00:19;25.00;19.40
6654;DHT22;3363;50.942;7.034;2023-06-04T14:02:47;25.00;18.60
6654;DHT22;3363;50.942;7.034;2023-06-04T14:05:14;25.00;20.00
6654;DHT22;3363;50.942;7.034;2023-06-04T14:07:41;25.00;19.90
6654;DHT22;3363;50.942;7.034;2023-06-04T14:10:08;25.00;19.80
6654;DHT22;3363;50.942;7.034;2023-06-04T14:12:36;25.10;20.20
6654;DHT22;3363;50.942;7.034;2023-06-04T14:15:05;25.10;21.40
6654;DHT22;3363;50.942;7.034;2023-06-04T14:17:32;24.90;18.50
6654;DHT22;3363;50.942;7.034;2023-06-04T14:19:59;24.80;20.00
6654;DHT22;3363;50.942;7.034;2023-06-04T14:22:26;24.80;21.30
6654;DHT22;3363;50.942;7.034;2023-06-04T14:24:53;24.80;20.80
6654;DHT22;3363;50.942;7.034;2023-06-04T14:27:19;24.70;21.60
6654;DHT22;3363;50.942;7.034;2023-06-04T14:29:46;24.90;21.30
6654;DHT22;3363;50.942;7.034;2023-06-04T14:32:14;24.90;20.10
6654;DHT22;3363;50.942;7.034;2023-06-04T14:34:41;25.00;19.80
6654;DHT22;3363;50.942;7.034;2023-06-04T14:37:07;25.10;19.40
6654;DHT22;3363;50.942;7.034;2023-06-04T14:39:34;25.10;19.00
6654;DHT22;3363;50.942;7.034;2023-06-04T14:42:01;24.90;20.00
6654;DHT22;3363;50.942;7.034;2023-06-04T14:44:28;25.00;21.30
6654;DHT22;3363;50.942;7.034;2023-06-04T14:46:54;24.70;18.50
6654;DHT22;3363;50.942;7.034;2023-06-04T14:49:23;24.70;21.70
6654;DHT22;3363;50.942;7.034;2023-06-04T14:51:50;24.80;20.20
6654;DHT22;3363;50.942;7.034;2023-06-04T14:54:16;24.70;20.70
6654;DHT22;3363;50.942;7.034;2023-06-04T14:56:43;24.80;21.10
6654;DHT22;3363;50.942;7.034;2023-06-04T14:59:10;24.90;21.10
6654;DHT22;3363;50.942;7.034;2023-06-04T15:01:37;24.90;21.50
6654;DHT22;3363;50.942;7.034;2023-06-04T15:04:06;24.90;21.80
6654;DHT22;3363;50.942;7.034;2023-06-04T15:06:34;24.80;21.30
6654;DHT22;3363;50.942;7.034;2023-06-04T15:09:01;24.90;21.40
6654;DHT22;3363;50.942;7.034;2023-06-04T15:11:28;24.90;21.60
6654;DHT22;3363;50.942;7.034;2023-06-04T15:13:55;25.00;21.70
6654;DHT22;3363;50.942;7.034;2023-06-04T15:16:22;25.00;21.80
6654;DHT22;3363;50.942;7.034;2023-06-04T15:18:49;24.90;22.40
6654;DHT22;3363;50.942;7.034;2023-06-04T15:21:16;24.70;23.10
6654;DHT22;3363;50.942;7.034;2023-06-04T15:23:44;24.70;23.80
6654;DHT22;3363;50.942;7.034;2023-06-04T15:26:14;24.70;23.10
6654;DHT22;3363;50.942;7.034;2023-06-04T15:28:40;24.90;22.30
6654;DHT22;3363;50.942;7.034;2023-06-04T15:31:07;24.90;20.90
6654;DHT22;3363;50.942;7.034;2023-06-04T15:33:34;25.00;22.90
6654;DHT22;3363;50.942;7.034;2023-06-04T15:36:00;24.80;22.20
6654;DHT22;3363;50.942;7.034;2023-06-04T15:38:27;24.90;22.60
6654;DHT22;3363;50.942;7.034;2023-06-04T15:40:55;24.90;19.40
6654;DHT22;3363;50.942;7.034;2023-06-04T15:43:21;25.00;21.80
6654;DHT22;3363;50.942;7.034;2023-06-04T15:45:48;25.00;22.10
6654;DHT22;3363;50.942;7.034;2023-06-04T15:48:15;24.90;22.00
6654;DHT22;3363;50.942;7.034;2023-06-04T15:50:41;25.00;22.20
6654;DHT22;3363;50.942;7.034;2023-06-04T15:53:08;25.00;22.60
6654;DHT22;3363;50.942;7.034;2023-06-04T15:55:34;25.10;22.10
6654;DHT22;3363;50.942;7.034;2023-06-04T15:58:02;25.00;22.20
6654;DHT22;3363;50.942;7.034;2023-06-04T16:00:29;25.00;23.10
6654;DHT22;3363;50.942;7.034;2023-06-04T16:02:56;24.80;22.10